Time;durP1;ratioP1;P1;durP2;ratioP2;P2;SDS_P1;SDS_P2;PMS_P1;PMS_P2;Temp;Humidity;BMP_temperature;BMP_pressure;BME280_temperature;BME280_humidity;BME280_pressure;Samples;Min_cycle;Max_cycle;Signal;HPM_P1;HPM_P2
2022/05/28 00:01:09;;;;;;;11.98;6.15;;;17.10;99.90;;;;;;5028039;28;20021;-70
2022/05/28 00:03:37;;;;;;;7.90;5.57;;;17.10;99.90;;;;;;5015574;28;20017;-70
2022/05/28 00:06:09;;;;;;;8.18;5.80;;;17.20;99.90;;;;;;5016782;28;20034;-71
2022/05/28 00:08:37;;;;;;;7.95;6.43;;;17.20;99.90;;;;;;5026039;28;20115;-70
2022/05/28 00:11:15;;;;;;;7.65;5.53;;;17.20;99.90;;;;;;5017296;28;20025;-70
2022/05/28 00:13:43;;;;;;;9.13;6.78;;;17.30;99.90;;;;;;5016010;28;20033;-70
2022/05/28 00:16:11;;;;;;;8.60;6.22;;;17.50;99.90;;;;;;5016234;28;20032;-70
2022/05/28 00:18:40;;;;;;;8.73;6.40;;;17.60;99.90;;;;;;5030111;28;20397;-70
2022/05/28 00:21:12;;;;;;;12.40;6.47;;;17.50;99.90;;;;;;5016769;28;20029;-71
2022/05/28 00:23:41;;;;;;;10.65;5.72;;;17.70;99.90;;;;;;5014582;28;20060;-70
2022/05/28 00:26:08;;;;;;;8.30;6.00;;;17.60;99.90;;;;;;5025604;28;20425;-70
2022/05/28 00:28:35;;;;;;;8.52;6.88;;;17.50;99.90;;;;;;5023441;28;20386;-70
2022/05/28 00:31:03;;;;;;;9.85;6.10;;;17.50;99.90;;;;;;5019834;28;20042;-70
2022/05/28 00:33:31;;;;;;;10.93;5.70;;;17.60;99.90;;;;;;5018801;28;20026;-70
2022/05/28 00:35:59;;;;;;;8.35;5.32;;;17.80;99.90;;;;;;5022598;28;20053;-71
2022/05/28 00:38:28;;;;;;;9.77;5.30;;;17.90;99.90;;;;;;5019183;28;20037;-72
2022/05/28 00:40:58;;;;;;;8.38;5.15;;;18.00;99.90;;;;;;5019305;28;20099;-72
2022/05/28 00:43:27;;;;;;;7.85;4.15;;;18.00;99.90;;;;;;5023198;28;20029;-71
2022/05/28 00:46:15;;;;;;;5.55;3.95;;;18.10;99.90;;;;;;5025484;28;20417;-71
2022/05/28 00:48:46;;;;;;;6.07;4.20;;;18.20;99.90;;;;;;5034205;28;20393;-71
2022/05/28 00:51:22;;;;;;;5.72;3.42;;;18.30;99.90;;;;;;5019061;28;20022;-71
2022/05/28 00:53:50;;;;;;;8.70;4.57;;;18.20;99.90;;;;;;5017815;28;20045;-71
2022/05/28 00:56:18;;;;;;;6.18;3.60;;;18.20;99.90;;;;;;5018046;28;20062;-71
2022/05/28 00:58:45;;;;;;;5.25;3.22;;;18.20;99.90;;;;;;5014769;28;20048;-71
2022/05/28 01:01:13;;;;;;;4.63;2.70;;;18.40;99.90;;;;;;5018702;28;20099;-71
2022/05/28 01:03:58;;;;;;;5.60;2.70;;;18.40;99.90;;;;;;5033897;28;20535;-71
2022/05/28 01:06:45;;;;;;;5.10;2.83;;;18.50;99.90;;;;;;5017652;28;20438;-71
2022/05/28 01:09:49;;;;;;;4.10;2.17;;;18.60;99.90;;;;;;5014536;28;20026;-71
2022/05/28 01:12:21;;;;;;;3.63;2.10;;;18.80;99.90;;;;;;5014556;28;20034;-71
2022/05/28 01:15:13;;;;;;;3.75;2.10;;;19.00;99.90;;;;;;5014226;28;20715;-71
2022/05/28 01:18:21;;;;;;;4.43;2.15;;;19.10;99.90;;;;;;5014388;28;20034;-71
2022/05/28 01:20:52;;;;;;;4.15;2.22;;;19.00;99.90;;;;;;4997413;28;20057;-71
2022/05/28 01:23:48;;;;;;;3.30;2.10;;;19.00;99.90;;;;;;5032712;28;20033;-71
2022/05/28 01:26:47;;;;;;;3.65;2.13;;;18.80;99.90;;;;;;5017275;28;20132;-70
2022/05/28 01:29:17;;;;;;;5.53;2.65;;;18.70;99.90;;;;;;5027158;28;20521;-70
2022/05/28 01:31:46;;;;;;;4.05;1.98;;;18.70;99.90;;;;;;5029813;28;20021;-71
2022/05/28 01:34:15;;;;;;;3.17;2.00;;;18.90;99.90;;;;;;5032076;28;20028;-71
2022/05/28 01:36:44;;;;;;;2.90;1.40;;;19.00;99.90;;;;;;5030908;28;20021;-71
2022/05/28 01:39:12;;;;;;;5.32;1.67;;;19.10;99.90;;;;;;5028706;28;20026;-71
2022/05/28 01:41:41;;;;;;;1.95;1.40;;;19.30;99.90;;;;;;5014406;28;20491;-70
2022/05/28 01:44:12;;;;;;;1.45;1.00;;;19.30;99.90;;;;;;5013256;28;20017;-71
2022/05/28 01:46:41;;;;;;;1.27;0.93;;;19.40;99.90;;;;;;5016578;28;20053;-70
2022/05/28 01:49:12;;;;;;;1.30;1.05;;;19.40;99.90;;;;;;5016469;28;20056;-71
2022/05/28 01:51:43;;;;;;;1.42;0.90;;;19.30;99.90;;;;;;5020703;28;20105;-71
2022/05/28 01:54:14;;;;;;;1.27;0.68;;;19.20;99.90;;;;;;5026202;28;20021;-71
2022/05/28 01:56:46;;;;;;;0.73;0.70;;;19.00;99.90;;;;;;5016126;28;20064;-71
2022/05/28 01:59:16;;;;;;;2.08;0.90;;;19.30;99.90;;;;;;5031857;28;20386;-70
2022/05/28 02:01:43;;;;;;;1.27;1.00;;;19.30;99.90;;;;;;5014620;28;20109;-70
2022/05/28 02:04:11;;;;;;;2.33;1.10;;;19.40;99.90;;;;;;5025412;28;20388;-70
2022/05/28 02:06:40;;;;;;;4.70;1.85;;;19.70;99.90;;;;;;5015193;28;20034;-70
2022/05/28 02:09:13;;;;;;;3.35;1.45;;;19.90;99.90;;;;;;5013510;28;20021;-71
2022/05/28 02:12:20;;;;;;;1.63;1.25;;;20.10;99.90;;;;;;5030097;28;20049;-71
2022/05/28 02:15:06;;;;;;;3.38;1.30;;;20.30;99.90;;;;;;5030316;28;20477;-71
2022/05/28 02:17:53;;;;;;;2.83;1.50;;;20.70;99.90;;;;;;5030323;28;20029;-71
2022/05/28 02:20:30;;;;;;;2.38;1.23;;;20.40;99.90;;;;;;5030395;28;20021;-71
2022/05/28 02:23:19;;;;;;;1.35;1.00;;;20.30;99.90;;;;;;5032030;28;20508;-71
2022/05/28 02:26:09;;;;;;;1.40;0.98;;;20.40;99.90;;;;;;5021134;28;20026;-71
2022/05/28 02:28:37;;;;;;;1.55;1.25;;;20.70;99.90;;;;;;5013568;28;20079;-70
2022/05/28 02:31:19;;;;;;;2.30;0.95;;;20.60;99.90;;;;;;5013237;28;20040;-70
2022/05/28 02:33:46;;;;;;;1.20;0.82;;;20.30;99.90;;;;;;5022985;28;20432;-70
2022/05/28 02:36:16;;;;;;;2.00;1.20;;;20.40;99.90;;;;;;5015112;28;20072;-70
2022/05/28 02:38:44;;;;;;;5.97;1.90;;;21.00;99.90;;;;;;5013330;28;20505;-70
2022/05/28 02:41:12;;;;;;;4.95;2.10;;;21.20;99.90;;;;;;5027136;28;20057;-69
2022/05/28 02:43:39;;;;;;;4.97;2.15;;;20.70;99.90;;;;;;5030544;28;20778;-70
2022/05/28 02:46:08;;;;;;;4.45;1.90;;;20.60;99.90;;;;;;5030813;28;20032;-70
2022/05/28 02:48:35;;;;;;;5.40;2.22;;;20.20;99.90;;;;;;5028415;28;20153;-70
2022/05/28 02:51:08;;;;;;;3.75;2.20;;;20.10;99.90;;;;;;5018560;28;20494;-70
2022/05/28 02:53:35;;;;;;;3.72;2.15;;;20.80;99.90;;;;;;5012711;28;20049;-70
2022/05/28 02:56:03;;;;;;;3.17;1.80;;;20.30;99.90;;;;;;5013240;28;20418;-70
2022/05/28 02:58:30;;;;;;;4.88;2.22;;;20.10;99.90;;;;;;5023752;28;20039;-70
2022/05/28 03:00:58;;;;;;;4.00;1.50;;;20.00;99.90;;;;;;5018125;28;20123;-70
2022/05/28 03:03:25;;;;;;;3.75;2.22;;;19.60;99.90;;;;;;5012444;28;20030;-71
2022/05/28 03:05:53;;;;;;;7.60;2.70;;;19.80;99.90;;;;;;5018708;28;20026;-71
2022/05/28 03:08:20;;;;;;;3.85;1.65;;;20.00;99.90;;;;;;5020387;28;20030;-70
2022/05/28 03:10:48;;;;;;;4.82;2.08;;;19.90;99.90;;;;;;5028400;28;20056;-69
2022/05/28 03:13:15;;;;;;;3.08;2.03;;;19.90;99.90;;;;;;5017171;28;20022;-69
2022/05/28 03:15:42;;;;;;;4.15;2.03;;;20.10;99.90;;;;;;5017738;28;20030;-70
2022/05/28 03:18:10;;;;;;;2.17;1.52;;;20.20;99.90;;;;;;5033933;28;20036;-69
2022/05/28 03:20:38;;;;;;;7.15;2.33;;;20.30;99.90;;;;;;5028090;28;20088;-69
2022/05/28 03:23:06;;;;;;;5.35;1.80;;;20.10;99.90;;;;;;5035617;28;20060;-68
2022/05/28 03:25:33;;;;;;;3.78;1.67;;;19.80;99.90;;;;;;5028304;28;20060;-69
2022/05/28 03:28:00;;;;;;;3.58;1.90;;;19.70;99.90;;;;;;5030728;28;20540;-70
2022/05/28 03:30:27;;;;;;;3.45;1.60;;;19.70;99.90;;;;;;5025004;28;20032;-70
2022/05/28 03:32:55;;;;;;;3.33;1.33;;;19.70;99.90;;;;;;5019137;28;20033;-70
2022/05/28 03:35:22;;;;;;;3.72;1.63;;;19.60;99.90;;;;;;5027396;28;20037;-70
2022/05/28 03:37:49;;;;;;;3.38;2.10;;;19.80;99.90;;;;;;5030590;28;20025;-70
2022/05/28 03:40:17;;;;;;;3.30;1.30;;;20.20;99.90;;;;;;5043904;28;20030;-70
2022/05/28 03:42:44;;;;;;;3.85;1.63;;;20.50;99.90;;;;;;5039125;28;20052;-71
2022/05/28 03:45:12;;;;;;;3.00;1.20;;;20.70;99.90;;;;;;5034764;28;20662;-70
2022/05/28 03:47:39;;;;;;;2.47;1.33;;;20.30;99.90;;;;;;5043848;28;20029;-70
2022/05/28 03:50:07;;;;;;;1.90;0.75;;;20.40;99.90;;;;;;5029077;28;20029;-70
2022/05/28 03:52:34;;;;;;;2.47;0.55;;;20.10;99.90;;;;;;5027667;28;20123;-70
2022/05/28 03:55:01;;;;;;;4.82;1.52;;;20.00;99.90;;;;;;5025020;28;20029;-69
2022/05/28 03:57:32;;;;;;;1.83;1.00;;;20.00;99.90;;;;;;5037753;28;20049;-69
2022/05/28 04:00:01;;;;;;;0.50;0.30;;;20.00;99.90;;;;;;5027799;28;20026;-70
2022/05/28 04:02:28;;;;;;;1.10;0.50;;;20.00;99.90;;;;;;5022362;28;20459;-70
2022/05/28 04:04:56;;;;;;;1.40;0.20;;;19.90;99.90;;;;;;5017966;28;20049;-69
2022/05/28 04:07:24;;;;;;;2.03;0.60;;;19.90;99.90;;;;;;5017955;28;20037;-69
2022/05/28 04:09:51;;;;;;;1.58;0.30;;;19.80;99.90;;;;;;5023194;28;20060;-69
2022/05/28 04:12:18;;;;;;;4.65;0.50;;;19.80;99.90;;;;;;5023172;28;20029;-70
2022/05/28 04:14:46;;;;;;;0.77;0.43;;;19.70;99.90;;;;;;5022763;28;20034;-70
2022/05/28 04:17:13;;;;;;;0.82;0.40;;;19.60;99.90;;;;;;5026965;28;20052;-69
2022/05/28 04:19:41;;;;;;;3.10;0.13;;;19.60;99.90;;;;;;5033432;28;20129;-69
2022/05/28 04:22:08;;;;;;;0.52;0.10;;;19.60;99.90;;;;;;5039975;28;20021;-69
2022/05/28 04:24:36;;;;;;;1.30;0.20;;;19.50;99.90;;;;;;5033042;28;22459;-70
2022/05/28 04:27:03;;;;;;;1.95;1.30;;;19.60;99.90;;;;;;5037360;28;20025;-70
2022/05/28 04:29:30;;;;;;;1.00;0.80;;;19.60;99.90;;;;;;5042468;28;20036;-70
2022/05/28 04:31:58;;;;;;;1.40;0.98;;;19.70;99.90;;;;;;5032529;28;20025;-70
2022/05/28 04:34:25;;;;;;;0.10;0.10;;;19.70;99.90;;;;;;5040054;28;20029;-69
2022/05/28 04:36:52;;;;;;;0.60;0.20;;;19.60;99.90;;;;;;5030302;28;20032;-70
2022/05/28 04:39:20;;;;;;;1.38;0.28;;;19.60;99.90;;;;;;5034031;28;20029;-70
2022/05/28 04:41:47;;;;;;;0.80;0.20;;;19.80;99.90;;;;;;5037670;28;20040;-69
2022/05/28 04:44:14;;;;;;;1.27;0.10;;;19.90;99.90;;;;;;5034837;28;20034;-69
2022/05/28 04:46:41;;;;;;;0.10;0.10;;;19.90;99.90;;;;;;5038794;28;20478;-69
2022/05/28 04:49:09;;;;;;;0.10;0.00;;;19.90;99.90;;;;;;5042551;28;20032;-69
2022/05/28 04:51:36;;;;;;;0.30;0.10;;;20.00;99.90;;;;;;5034058;28;20022;-69
2022/05/28 04:54:04;;;;;;;0.85;0.10;;;20.00;99.90;;;;;;5033605;28;20021;-68
2022/05/28 04:56:32;;;;;;;0.70;0.10;;;19.90;99.90;;;;;;5030496;28;20026;-70
2022/05/28 04:58:59;;;;;;;0.80;0.20;;;19.90;99.90;;;;;;5032614;28;20025;-68
2022/05/28 05:01:27;;;;;;;0.77;0.25;;;19.80;99.90;;;;;;5035277;28;20024;-69
2022/05/28 05:03:55;;;;;;;2.30;0.20;;;19.60;99.90;;;;;;5036342;28;20041;-68
2022/05/28 05:06:22;;;;;;;0.60;0.10;;;19.50;99.90;;;;;;5028590;28;20031;-69
2022/05/28 05:08:50;;;;;;;0.17;0.10;;;19.50;99.90;;;;;;5028521;28;20026;-69
2022/05/28 05:11:17;;;;;;;1.30;0.17;;;19.40;99.90;;;;;;5031283;28;20025;-68
2022/05/28 05:13:44;;;;;;;0.85;0.10;;;19.40;99.90;;;;;;5035585;28;20025;-69
2022/05/28 05:16:17;;;;;;;0.35;0.10;;;19.40;99.90;;;;;;5032990;28;20105;-69
2022/05/28 05:18:45;;;;;;;0.20;0.10;;;19.40;99.90;;;;;;5038293;28;20037;-69
2022/05/28 05:21:12;;;;;;;1.90;0.10;;;19.40;99.90;;;;;;5036304;28;20040;-68
2022/05/28 05:23:44;;;;;;;0.20;0.10;;;19.40;99.90;;;;;;5031758;28;20497;-69
2022/05/28 05:26:16;;;;;;;0.20;0.13;;;19.40;99.90;;;;;;5036703;28;20029;-69
2022/05/28 05:28:44;;;;;;;0.40;0.15;;;19.30;99.90;;;;;;5039807;28;20033;-69
2022/05/28 05:31:12;;;;;;;0.60;0.15;;;19.50;99.90;;;;;;5039682;28;20032;-70
2022/05/28 05:33:39;;;;;;;0.43;0.20;;;19.60;99.90;;;;;;5037418;28;20126;-69
2022/05/28 05:36:07;;;;;;;0.77;0.20;;;19.70;99.90;;;;;;5021375;28;20283;-69
2022/05/28 05:38:35;;;;;;;2.15;0.43;;;19.70;99.90;;;;;;5020957;28;20037;-70
2022/05/28 05:41:02;;;;;;;0.50;0.05;;;19.90;99.90;;;;;;5023153;28;20022;-70
2022/05/28 05:43:29;;;;;;;1.48;0.40;;;19.70;99.90;;;;;;5017830;28;20022;-70
2022/05/28 05:45:59;;;;;;;0.10;0.05;;;19.70;99.90;;;;;;5020387;28;20083;-70
2022/05/28 05:48:29;;;;;;;1.08;0.20;;;19.70;99.90;;;;;;5032909;28;20150;-70
2022/05/28 05:51:03;;;;;;;1.88;0.30;;;19.70;99.90;;;;;;5036745;28;20045;-70
2022/05/28 05:53:30;;;;;;;0.45;0.22;;;19.70;99.90;;;;;;5022654;28;20045;-69
2022/05/28 05:55:58;;;;;;;0.30;0.10;;;19.70;99.90;;;;;;5027071;28;20025;-69
2022/05/28 05:58:25;;;;;;;0.28;0.20;;;19.70;99.90;;;;;;5022611;28;20028;-69
2022/05/28 06:00:52;;;;;;;0.68;0.20;;;19.60;99.90;;;;;;5021575;28;20063;-70
2022/05/28 06:03:20;;;;;;;0.43;0.20;;;19.60;99.90;;;;;;5019598;28;20113;-70
2022/05/28 06:05:48;;;;;;;0.70;0.10;;;19.50;99.90;;;;;;5024747;28;20040;-69
2022/05/28 06:08:15;;;;;;;2.03;0.30;;;19.40;99.90;;;;;;5029410;28;20086;-70
2022/05/28 06:10:44;;;;;;;1.65;0.32;;;19.20;99.90;;;;;;5018329;28;20025;-70
2022/05/28 06:13:12;;;;;;;0.98;0.30;;;19.10;99.90;;;;;;5022105;28;20478;-70
2022/05/28 06:15:39;;;;;;;0.65;0.35;;;19.00;99.90;;;;;;5027669;28;20021;-69
2022/05/28 06:18:06;;;;;;;0.47;0.30;;;18.90;99.90;;;;;;5023947;28;20040;-69
2022/05/28 06:20:34;;;;;;;2.05;0.30;;;18.80;99.90;;;;;;5020807;28;20406;-70
2022/05/28 06:23:02;;;;;;;0.30;0.20;;;18.80;99.90;;;;;;5014920;28;20057;-69
2022/05/28 06:25:30;;;;;;;0.63;0.25;;;18.70;99.90;;;;;;5021692;28;20032;-69
2022/05/28 06:27:57;;;;;;;1.02;0.20;;;18.70;99.90;;;;;;5030677;28;20091;-70
2022/05/28 06:30:24;;;;;;;1.25;0.30;;;18.60;99.90;;;;;;5026692;28;20042;-70
2022/05/28 06:32:52;;;;;;;0.50;0.30;;;18.50;99.90;;;;;;5017863;28;20047;-70
2022/05/28 06:35:19;;;;;;;1.33;0.30;;;18.30;99.90;;;;;;5024925;28;20774;-69
2022/05/28 06:37:49;;;;;;;1.45;0.30;;;18.20;99.90;;;;;;5027911;28;20029;-71
2022/05/28 06:40:16;;;;;;;1.23;0.30;;;18.10;99.90;;;;;;5022667;28;20090;-71
2022/05/28 06:42:46;;;;;;;1.05;0.30;;;18.10;99.90;;;;;;5013537;28;20030;-72
2022/05/28 06:45:14;;;;;;;1.30;0.40;;;18.10;99.90;;;;;;5024779;28;20030;-72
2022/05/28 06:47:43;;;;;;;1.60;0.70;;;18.20;99.90;;;;;;5025832;28;20083;-71
2022/05/28 06:52:58;;;;;;;2.58;0.55;;;18.30;99.90;;;;;;5016586;28;20052;-71
2022/05/28 06:55:26;;;;;;;3.42;2.58;;;18.30;99.90;;;;;;5028917;28;20401;-71
2022/05/28 06:57:54;;;;;;;1.85;1.02;;;18.20;99.90;;;;;;5029462;28;20073;-72
2022/05/28 07:00:21;;;;;;;1.67;0.70;;;18.20;99.90;;;;;;5024039;28;20471;-70
2022/05/28 07:02:48;;;;;;;1.23;0.50;;;18.10;99.90;;;;;;5029034;28;20105;-71
2022/05/28 07:05:16;;;;;;;1.48;0.57;;;18.00;99.90;;;;;;5022950;28;20022;-72
2022/05/28 07:07:44;;;;;;;2.05;0.50;;;18.00;99.90;;;;;;5019483;28;20481;-73
2022/05/28 07:10:12;;;;;;;3.10;1.52;;;18.00;99.90;;;;;;5021310;28;20026;-72
2022/05/28 07:12:39;;;;;;;4.13;2.47;;;17.90;99.90;;;;;;5027696;28;20030;-69
2022/05/28 07:15:07;;;;;;;1.83;0.57;;;18.00;99.90;;;;;;5025233;28;20486;-71
2022/05/28 07:17:35;;;;;;;2.20;0.63;;;17.90;99.90;;;;;;5031999;28;20049;-71
2022/05/28 07:20:04;;;;;;;5.50;1.02;;;18.00;99.90;;;;;;5030784;28;20014;-71
2022/05/28 07:22:32;;;;;;;1.58;0.70;;;18.00;99.90;;;;;;5016731;28;20057;-71
2022/05/28 07:24:59;;;;;;;3.17;0.40;;;18.00;99.90;;;;;;5017926;28;20026;-71
2022/05/28 07:27:26;;;;;;;2.83;0.75;;;17.80;99.90;;;;;;5026107;28;20070;-71
2022/05/28 07:29:57;;;;;;;1.40;0.95;;;17.80;99.90;;;;;;5022602;28;20026;-72
2022/05/28 07:32:29;;;;;;;5.43;3.95;;;17.70;99.90;;;;;;5023648;28;20021;-72
2022/05/28 07:34:57;;;;;;;3.88;3.03;;;17.70;99.90;;;;;;5022806;28;20025;-72
2022/05/28 07:37:29;;;;;;;3.58;1.90;;;17.60;99.90;;;;;;5028191;28;20552;-72
2022/05/28 07:39:58;;;;;;;1.38;0.93;;;17.50;99.90;;;;;;5021223;28;20025;-72
2022/05/28 07:42:27;;;;;;;4.05;1.48;;;17.40;99.90;;;;;;5023740;28;20163;-72
2022/05/28 07:44:54;;;;;;;5.88;2.85;;;17.40;99.90;;;;;;5022530;28;20022;-72
2022/05/28 07:47:21;;;;;;;3.25;1.45;;;17.40;99.90;;;;;;5024620;28;20059;-72
2022/05/28 07:49:49;;;;;;;4.32;2.17;;;17.50;99.90;;;;;;5020039;28;20022;-72
2022/05/28 07:52:17;;;;;;;3.20;1.30;;;17.50;99.90;;;;;;5020293;28;20053;-72
2022/05/28 07:54:44;;;;;;;3.42;1.40;;;17.50;99.90;;;;;;5017552;28;20375;-72
2022/05/28 07:57:11;;;;;;;4.20;1.33;;;17.50;99.90;;;;;;5016260;28;20377;-72
2022/05/28 07:59:39;;;;;;;12.82;9.90;;;17.40;99.90;;;;;;5018304;28;21466;-72
2022/05/28 08:02:07;;;;;;;39.38;35.05;;;17.40;99.90;;;;;;5022515;28;20029;-72
2022/05/28 08:04:34;;;;;;;21.60;17.20;;;17.40;99.90;;;;;;5019159;28;20022;-72
2022/05/28 08:07:02;;;;;;;14.95;9.38;;;17.40;99.90;;;;;;5025222;28;20021;-72
2022/05/28 08:09:29;;;;;;;5.00;3.65;;;17.40;99.90;;;;;;5024696;28;20190;-72
2022/05/28 08:11:56;;;;;;;7.85;6.60;;;17.40;99.90;;;;;;5024659;28;20088;-72
2022/05/28 08:14:23;;;;;;;10.40;7.35;;;17.40;99.90;;;;;;5022142;28;20018;-72
2022/05/28 08:16:51;;;;;;;12.00;9.18;;;17.30;99.90;;;;;;5017959;28;20029;-72
2022/05/28 08:19:18;;;;;;;6.78;3.90;;;17.30;99.90;;;;;;5021034;28;20083;-71
2022/05/28 08:24:30;;;;;;;4.95;1.70;;;17.30;99.90;;;;;;5028619;28;20064;-72
2022/05/28 08:26:58;;;;;;;2.60;1.60;;;17.20;99.90;;;;;;5031502;28;20024;-72
2022/05/28 08:29:26;;;;;;;7.15;3.10;;;17.20;99.90;;;;;;5024175;28;20494;-72
2022/05/28 08:31:53;;;;;;;7.63;3.28;;;17.10;99.90;;;;;;5027309;28;20026;-72
2022/05/28 08:34:20;;;;;;;7.75;2.90;;;17.20;99.90;;;;;;5024013;28;20533;-71
2022/05/28 08:36:48;;;;;;;4.75;3.30;;;17.10;99.90;;;;;;5033206;28;20045;-72
2022/05/28 08:39:16;;;;;;;6.93;3.58;;;17.00;99.90;;;;;;5026872;28;20409;-72
2022/05/28 08:42:04;;;;;;;5.80;4.40;;;17.10;99.90;;;;;;5026885;28;21767;-72
2022/05/28 08:44:39;;;;;;;6.40;3.63;;;17.00;99.90;;;;;;5031556;28;20108;-72
2022/05/28 08:47:21;;;;;;;12.48;6.55;;;16.90;99.90;;;;;;5016611;28;20085;-72
2022/05/28 08:49:51;;;;;;;18.02;13.32;;;17.00;99.90;;;;;;5017488;28;20478;-71
2022/05/28 08:52:39;;;;;;;8.32;5.15;;;17.00;99.90;;;;;;5020327;28;20042;-72
2022/05/28 08:55:16;;;;;;;15.30;9.70;;;16.90;99.90;;;;;;5022267;28;20034;-72
2022/05/28 08:57:59;;;;;;;7.57;5.32;;;16.90;99.90;;;;;;5025441;28;20025;-72
2022/05/28 09:00:43;;;;;;;3.33;2.08;;;16.80;99.90;;;;;;5028655;28;20056;-72
2022/05/28 09:03:22;;;;;;;5.70;3.50;;;16.90;99.90;;;;;;5030247;28;20104;-72
2022/05/28 09:05:54;;;;;;;5.75;3.90;;;16.90;99.90;;;;;;5017693;28;20061;-72
2022/05/28 09:08:46;;;;;;;5.38;3.08;;;16.80;99.90;;;;;;5029476;28;20034;-72
2022/05/28 09:11:30;;;;;;;6.63;3.00;;;16.90;99.90;;;;;;5022378;28;20428;-72
2022/05/28 09:14:00;;;;;;;6.25;3.35;;;16.80;99.90;;;;;;5027501;28;20022;-71
2022/05/28 09:16:29;;;;;;;4.00;2.53;;;16.70;99.90;;;;;;5016306;28;20038;-71
2022/05/28 09:19:00;;;;;;;7.00;2.45;;;16.70;99.90;;;;;;5024562;28;20545;-71
2022/05/28 09:21:27;;;;;;;3.92;1.63;;;16.70;99.90;;;;;;5028621;28;20053;-71
2022/05/28 09:24:04;;;;;;;4.90;1.38;;;16.70;99.90;;;;;;5035445;28;20036;-70
2022/05/28 09:27:02;;;;;;;3.63;1.33;;;16.60;99.90;;;;;;5015392;28;20030;-71
2022/05/28 09:29:59;;;;;;;4.35;1.83;;;16.60;99.90;;;;;;5021906;28;20064;-70
2022/05/28 09:33:02;;;;;;;4.72;2.78;;;16.60;99.90;;;;;;5018019;28;20021;-70
2022/05/28 09:35:38;;;;;;;8.45;6.40;;;16.60;99.90;;;;;;5024040;28;20121;-71
2022/05/28 09:38:05;;;;;;;7.40;3.28;;;16.60;99.90;;;;;;5032316;28;20072;-71
2022/05/28 09:40:54;;;;;;;5.10;1.40;;;16.60;99.90;;;;;;5022148;28;20026;-71
2022/05/28 09:43:46;;;;;;;3.20;1.55;;;16.50;99.90;;;;;;5026037;28;20075;-70
2022/05/28 09:46:35;;;;;;;5.07;1.67;;;16.50;99.90;;;;;;5032335;28;20029;-71
2022/05/28 09:49:14;;;;;;;4.85;2.67;;;16.40;99.90;;;;;;5017539;28;20021;-70
2022/05/28 09:51:59;;;;;;;8.00;3.33;;;16.40;99.90;;;;;;5021660;28;20022;-71
2022/05/28 09:54:33;;;;;;;7.85;3.75;;;16.40;99.90;;;;;;5030533;28;20025;-71
2022/05/28 09:57:10;;;;;;;7.38;3.53;;;16.40;99.90;;;;;;5031131;28;20042;-70
2022/05/28 09:59:37;;;;;;;;;;;16.30;99.90;;;;;;5014745;28;20681;-71
2022/05/28 10:02:19;;;;;;;6.88;3.38;;;16.20;99.90;;;;;;5032739;28;20730;-71
2022/05/28 10:04:57;;;;;;;10.48;4.03;;;16.20;99.90;;;;;;5027243;28;20021;-71
2022/05/28 10:07:43;;;;;;;5.90;3.45;;;16.10;99.90;;;;;;5017056;28;20018;-71
2022/05/28 10:10:31;;;;;;;5.22;3.17;;;16.00;99.90;;;;;;5019361;28;20381;-72
2022/05/28 10:13:14;;;;;;;4.78;3.53;;;15.90;99.90;;;;;;5026658;28;20037;-71
2022/05/28 10:15:50;;;;;;;5.75;3.67;;;15.80;99.90;;;;;;5015393;28;20033;-71
2022/05/28 10:18:25;;;;;;;6.45;3.97;;;15.80;99.90;;;;;;5027621;28;20056;-71
2022/05/28 10:21:17;;;;;;;5.43;3.80;;;15.70;99.90;;;;;;5017524;28;20036;-71
2022/05/28 10:23:57;;;;;;;4.70;3.45;;;15.60;99.90;;;;;;5023518;28;20108;-71
2022/05/28 10:27:01;;;;;;;5.45;3.45;;;15.60;99.90;;;;;;5020492;28;20450;-71
2022/05/28 10:29:39;;;;;;;6.28;3.63;;;15.50;99.90;;;;;;5012998;28;20498;-70
2022/05/28 10:32:31;;;;;;;6.60;4.43;;;15.50;99.90;;;;;;5031008;28;20033;-71
2022/05/28 10:35:15;;;;;;;9.48;5.78;;;15.50;99.90;;;;;;5023025;28;20033;-71
2022/05/28 10:37:43;;;;;;;5.90;3.30;;;15.40;99.90;;;;;;5014873;28;20022;-71
2022/05/28 10:40:16;;;;;;;5.03;2.70;;;15.40;99.90;;;;;;5012088;28;20475;-72
2022/05/28 10:42:43;;;;;;;6.18;3.25;;;15.40;99.90;;;;;;5019424;28;20026;-71
2022/05/28 10:45:12;;;;;;;5.07;2.30;;;15.50;99.90;;;;;;5021936;28;20037;-70
2022/05/28 10:48:06;;;;;;;4.75;2.13;;;15.50;99.90;;;;;;5026996;28;20120;-71
2022/05/28 10:50:46;;;;;;;6.30;2.28;;;15.50;99.90;;;;;;5022388;28;20028;-70
2022/05/28 10:53:48;;;;;;;4.07;2.25;;;15.40;99.90;;;;;;5012661;28;20125;-70
2022/05/28 10:56:41;;;;;;;3.50;2.13;;;15.50;99.90;;;;;;5024386;28;20034;-72
2022/05/28 10:59:26;;;;;;;2.83;1.88;;;15.40;99.90;;;;;;5031102;28;20034;-71
2022/05/28 11:02:07;;;;;;;3.28;2.05;;;15.40;99.90;;;;;;5019635;28;20116;-71
2022/05/28 11:05:02;;;;;;;2.58;1.77;;;15.40;99.90;;;;;;5018790;28;20013;-72
2022/05/28 11:07:51;;;;;;;3.80;1.85;;;15.30;99.90;;;;;;5013777;28;20022;-71
2022/05/28 11:10:51;;;;;;;2.60;1.48;;;15.30;99.90;;;;;;5015445;28;20455;-72
2022/05/28 11:13:49;;;;;;;2.72;1.63;;;15.30;99.90;;;;;;5019243;28;20034;-71
2022/05/28 11:16:53;;;;;;;4.38;2.28;;;15.20;99.90;;;;;;5013698;28;20030;-72
2022/05/28 11:19:34;;;;;;;4.70;2.25;;;15.20;99.90;;;;;;5019618;28;20026;-71
2022/05/28 11:22:16;;;;;;;4.55;2.80;;;15.20;99.90;;;;;;5017325;28;20105;-72
2022/05/28 11:25:09;;;;;;;4.10;2.35;;;15.10;99.90;;;;;;5029279;28;20049;-71
2022/05/28 11:27:46;;;;;;;5.43;2.90;;;14.90;99.90;;;;;;5026446;28;20390;-72
2022/05/28 11:30:21;;;;;;;4.45;2.83;;;14.90;99.90;;;;;;5017896;28;20032;-72
2022/05/28 11:33:06;;;;;;;4.90;3.25;;;14.90;99.90;;;;;;5018269;28;20061;-72
2022/05/28 11:35:34;;;;;;;7.28;3.33;;;14.90;99.90;;;;;;5031974;28;20109;-70
2022/05/28 11:38:24;;;;;;;11.32;3.90;;;14.90;99.90;;;;;;5034120;28;20045;-72
2022/05/28 11:41:19;;;;;;;4.20;2.60;;;15.20;99.90;;;;;;5036332;28;20046;-71
2022/05/28 11:44:05;;;;;;;4.82;2.75;;;15.10;99.90;;;;;;5034735;28;20027;-71
2022/05/28 11:46:58;;;;;;;4.60;2.78;;;14.90;99.90;;;;;;5033682;28;20041;-72
2022/05/28 11:53:01;;;;;;;7.68;2.45;;;14.90;99.90;;;;;;5026117;28;20138;-70
2022/05/28 11:55:33;;;;;;;4.97;2.33;;;14.70;99.90;;;;;;5019441;28;20030;-70
2022/05/28 11:58:20;;;;;;;5.10;2.30;;;14.80;99.90;;;;;;5020026;28;20490;-69
2022/05/28 12:00:59;;;;;;;4.53;2.60;;;14.80;99.90;;;;;;5027810;28;20037;-70
2022/05/28 12:03:30;;;;;;;3.85;1.85;;;14.80;99.90;;;;;;5018413;28;20029;-70
2022/05/28 12:06:22;;;;;;;2.72;1.58;;;14.80;99.90;;;;;;5031245;28;20032;-69
2022/05/28 12:09:16;;;;;;;5.25;2.38;;;14.80;99.90;;;;;;5019164;28;20029;-69
2022/05/28 12:12:17;;;;;;;4.13;2.42;;;14.90;99.90;;;;;;5033301;28;20022;-69
2022/05/28 12:14:48;;;;;;;4.70;2.08;;;14.80;99.90;;;;;;5018323;28;20033;-70
2022/05/28 12:17:18;;;;;;;5.32;2.40;;;14.60;99.90;;;;;;5022819;28;20033;-70
2022/05/28 12:19:53;;;;;;;7.70;3.88;;;14.60;99.90;;;;;;5031061;28;20030;-69
2022/05/28 12:22:36;;;;;;;9.73;5.35;;;14.50;99.90;;;;;;5026447;28;20022;-69
2022/05/28 12:25:32;;;;;;;11.00;6.00;;;14.50;99.90;;;;;;5030628;28;20064;-69
2022/05/28 12:28:07;;;;;;;10.68;5.60;;;14.40;99.90;;;;;;5020389;28;20025;-70
2022/05/28 12:30:42;;;;;;;8.02;4.65;;;14.50;99.90;;;;;;5016692;28;20090;-69
2022/05/28 12:33:30;;;;;;;7.90;3.70;;;14.40;99.90;;;;;;5031144;28;20025;-70
2022/05/28 12:36:08;;;;;;;6.47;2.45;;;14.30;99.90;;;;;;5022160;28;20120;-70
2022/05/28 12:38:47;;;;;;;7.72;4.38;;;14.30;99.90;;;;;;5020767;28;20017;-70
2022/05/28 12:41:27;;;;;;;9.35;5.18;;;14.20;99.90;;;;;;5026709;28;20018;-70
2022/05/28 12:44:17;;;;;;;7.30;4.40;;;14.20;99.90;;;;;;5021060;28;20022;-70
2022/05/28 12:46:54;;;;;;;3.75;2.80;;;14.10;99.90;;;;;;5024054;28;20439;-70
2022/05/28 12:49:37;;;;;;;5.43;3.13;;;14.10;99.90;;;;;;5027757;28;20523;-70
2022/05/28 12:52:22;;;;;;;4.20;2.45;;;14.00;99.90;;;;;;5023850;28;20042;-69
2022/05/28 12:55:05;;;;;;;6.63;2.83;;;14.10;99.90;;;;;;5015707;28;20097;-69
2022/05/28 12:57:37;;;;;;;6.20;2.55;;;14.20;99.90;;;;;;5022864;28;20117;-69
2022/05/28 13:00:07;;;;;;;4.10;2.53;;;14.20;99.90;;;;;;5015550;28;20115;-70
2022/05/28 13:02:44;;;;;;;6.70;2.67;;;14.20;99.90;;;;;;5015057;28;20030;-70
2022/05/28 13:05:16;;;;;;;6.40;2.33;;;14.20;99.90;;;;;;5027725;28;20033;-69
2022/05/28 13:07:50;;;;;;;3.75;1.88;;;14.20;99.90;;;;;;5029215;28;20029;-69
2022/05/28 13:10:27;;;;;;;3.30;2.03;;;14.10;99.90;;;;;;5026990;28;20032;-69
2022/05/28 13:13:00;;;;;;;4.03;2.65;;;14.10;99.90;;;;;;5028210;28;20045;-70
2022/05/28 13:15:55;;;;;;;4.35;2.65;;;14.00;99.90;;;;;;5023204;28;20060;-69
2022/05/28 13:18:41;;;;;;;5.18;2.90;;;14.00;99.90;;;;;;5018848;28;20383;-69
2022/05/28 13:21:14;;;;;;;4.63;2.92;;;14.00;99.90;;;;;;5020283;28;20568;-69
2022/05/28 13:24:02;;;;;;;4.32;2.85;;;13.80;99.90;;;;;;5021802;28;20021;-69
2022/05/28 13:26:48;;;;;;;4.43;2.50;;;13.80;99.90;;;;;;5026461;28;20022;-69
2022/05/28 13:29:52;;;;;;;6.03;3.30;;;13.70;99.90;;;;;;5026347;28;20038;-69